sensor_id;sensor_type;location;lat;lon;timestamp;P1;durP1;ratioP1;P2;durP2;ratioP2
22490;SDS011;11412;50.802;4.350;2024-01-15T00:01:29;33.20;;;15.63;;
22490;SDS011;11412;50.802;4.350;2024-01-15T00:03:55;28.80;;;14.60;;
22490;SDS011;11412;50.802;4.350;2024-01-15T00:06:20;28.58;;;14.52;;
22490;SDS011;11412;50.802;4.350;2024-01-15T00:08:46;27.20;;;14.82;;
22490;SDS011;11412;50.802;4.350;2024-01-15T00:11:12;31.02;;;15.27;;
22490;SDS011;11412;50.802;4.350;2024-01-15T00:13:37;24.63;;;13.57;;
22490;SDS011;11412;50.802;4.350;2024-01-15T00:16:04;25.95;;;13.32;;
22490;SDS011;11412;50.802;4.350;2024-01-15T00:18:30;27.83;;;13.93;;
22490;SDS011;11412;50.802;4.350;2024-01-15T00:20:55;26.38;;;14.02;;
22490;SDS011;11412;50.802;4.350;2024-01-15T00:23:22;26.65;;;14.02;;
22490;SDS011;11412;50.802;4.350;2024-01-15T00:25:47;25.85;;;13.75;;
22490;SDS011;11412;50.802;4.350;2024-01-15T00:28:13;23.83;;;14.05;;
22490;SDS011;11412;50.802;4.350;2024-01-15T00:30:39;21.40;;;12.35;;
22490;SDS011;11412;50.802;4.350;2024-01-15T00:33:04;22.48;;;12.90;;
22490;SDS011;11412;50.802;4.350;2024-01-15T00:35:30;25.40;;;12.50;;
22490;SDS011;11412;50.802;4.350;2024-01-15T00:37:55;21.20;;;12.63;;
22490;SDS011;11412;50.802;4.350;2024-01-15T00:40:21;21.65;;;11.20;;
22490;SDS011;11412;50.802;4.350;2024-01-15T00:42:47;20.02;;;11.27;;
22490;SDS011;11412;50.802;4.350;2024-01-15T00:45:12;19.95;;;11.10;;
22490;SDS011;11412;50.802;4.350;2024-01-15T00:47:38;22.40;;;11.63;;
22490;SDS011;11412;50.802;4.350;2024-01-15T00:50:04;18.75;;;10.18;;
22490;SDS011;11412;50.802;4.350;2024-01-15T00:52:30;16.80;;;9.75;;
22490;SDS011;11412;50.802;4.350;2024-01-15T00:54:56;19.98;;;10.32;;
22490;SDS011;11412;50.802;4.350;2024-01-15T00:57:21;19.00;;;10.82;;
22490;SDS011;11412;50.802;4.350;2024-01-15T00:59:47;18.38;;;9.98;;
22490;SDS011;11412;50.802;4.350;2024-01-15T01:02:13;17.70;;;10.18;;
22490;SDS011;11412;50.802;4.350;2024-01-15T01:04:39;17.75;;;9.82;;
22490;SDS011;11412;50.802;4.350;2024-01-15T01:07:05;17.77;;;10.52;;
22490;SDS011;11412;50.802;4.350;2024-01-15T01:09:31;17.38;;;10.50;;
22490;SDS011;11412;50.802;4.350;2024-01-15T01:11:56;21.20;;;10.40;;
22490;SDS011;11412;50.802;4.350;2024-01-15T01:14:22;15.68;;;9.80;;
22490;SDS011;11412;50.802;4.350;2024-01-15T01:16:48;15.45;;;9.40;;
22490;SDS011;11412;50.802;4.350;2024-01-15T01:19:14;16.67;;;10.70;;
22490;SDS011;11412;50.802;4.350;2024-01-15T01:21:40;14.68;;;9.50;;
22490;SDS011;11412;50.802;4.350;2024-01-15T01:24:05;14.95;;;8.80;;
22490;SDS011;11412;50.802;4.350;2024-01-15T01:26:31;18.02;;;9.73;;
22490;SDS011;11412;50.802;4.350;2024-01-15T01:28:57;14.45;;;9.40;;
22490;SDS011;11412;50.802;4.350;2024-01-15T01:31:23;16.38;;;10.30;;
22490;SDS011;11412;50.802;4.350;2024-01-15T01:33:49;15.23;;;10.02;;
22490;SDS011;11412;50.802;4.350;2024-01-15T01:36:14;15.75;;;10.07;;
22490;SDS011;11412;50.802;4.350;2024-01-15T01:38:40;15.20;;;9.23;;
22490;SDS011;11412;50.802;4.350;2024-01-15T01:41:06;17.52;;;9.13;;
22490;SDS011;11412;50.802;4.350;2024-01-15T01:43:31;20.20;;;9.93;;
22490;SDS011;11412;50.802;4.350;2024-01-15T01:45:57;15.30;;;9.15;;
22490;SDS011;11412;50.802;4.350;2024-01-15T01:48:24;18.67;;;9.40;;
22490;SDS011;11412;50.802;4.350;2024-01-15T01:50:53;13.32;;;9.20;;
22490;SDS011;11412;50.802;4.350;2024-01-15T01:53:22;13.40;;;8.60;;
22490;SDS011;11412;50.802;4.350;2024-01-15T01:55:48;12.88;;;8.05;;
22490;SDS011;11412;50.802;4.350;2024-01-15T01:58:14;16.40;;;8.27;;
22490;SDS011;11412;50.802;4.350;2024-01-15T02:00:40;13.43;;;7.60;;
22490;SDS011;11412;50.802;4.350;2024-01-15T02:03:06;14.40;;;7.93;;
22490;SDS011;11412;50.802;4.350;2024-01-15T02:05:33;14.98;;;7.45;;
22490;SDS011;11412;50.802;4.350;2024-01-15T02:08:00;12.18;;;7.95;;
22490;SDS011;11412;50.802;4.350;2024-01-15T02:10:25;11.25;;;7.55;;
22490;SDS011;11412;50.802;4.350;2024-01-15T02:12:51;8.80;;;6.30;;
22490;SDS011;11412;50.802;4.350;2024-01-15T02:15:17;12.60;;;6.85;;
22490;SDS011;11412;50.802;4.350;2024-01-15T02:20:31;8.38;;;6.00;;
22490;SDS011;11412;50.802;4.350;2024-01-15T02:25:32;12.48;;;5.50;;
22490;SDS011;11412;50.802;4.350;2024-01-15T02:27:58;11.75;;;5.55;;
22490;SDS011;11412;50.802;4.350;2024-01-15T02:30:24;9.80;;;5.65;;
22490;SDS011;11412;50.802;4.350;2024-01-15T02:32:51;8.15;;;5.30;;
22490;SDS011;11412;50.802;4.350;2024-01-15T02:35:16;10.63;;;6.65;;
22490;SDS011;11412;50.802;4.350;2024-01-15T02:37:42;11.32;;;6.40;;
22490;SDS011;11412;50.802;4.350;2024-01-15T02:40:08;9.65;;;6.93;;
22490;SDS011;11412;50.802;4.350;2024-01-15T02:42:34;12.88;;;8.05;;
22490;SDS011;11412;50.802;4.350;2024-01-15T02:45:00;11.70;;;7.38;;
22490;SDS011;11412;50.802;4.350;2024-01-15T02:47:25;12.77;;;8.20;;
22490;SDS011;11412;50.802;4.350;2024-01-15T02:49:51;14.60;;;7.90;;
22490;SDS011;11412;50.802;4.350;2024-01-15T02:52:17;15.90;;;8.50;;
22490;SDS011;11412;50.802;4.350;2024-01-15T02:54:43;13.65;;;8.52;;
22490;SDS011;11412;50.802;4.350;2024-01-15T02:57:08;15.80;;;9.05;;
22490;SDS011;11412;50.802;4.350;2024-01-15T02:59:34;14.85;;;8.50;;
22490;SDS011;11412;50.802;4.350;2024-01-15T03:02:00;14.48;;;9.70;;
22490;SDS011;11412;50.802;4.350;2024-01-15T03:04:25;14.45;;;9.30;;
22490;SDS011;11412;50.802;4.350;2024-01-15T03:06:51;15.77;;;9.48;;
22490;SDS011;11412;50.802;4.350;2024-01-15T03:09:16;17.10;;;9.88;;
22490;SDS011;11412;50.802;4.350;2024-01-15T03:11:42;17.00;;;9.40;;
22490;SDS011;11412;50.802;4.350;2024-01-15T03:14:08;17.42;;;9.52;;
22490;SDS011;11412;50.802;4.350;2024-01-15T03:16:33;17.30;;;10.70;;
22490;SDS011;11412;50.802;4.350;2024-01-15T03:18:59;18.60;;;10.73;;
22490;SDS011;11412;50.802;4.350;2024-01-15T03:21:24;15.73;;;9.75;;
22490;SDS011;11412;50.802;4.350;2024-01-15T03:23:50;18.98;;;11.07;;
22490;SDS011;11412;50.802;4.350;2024-01-15T03:26:16;17.35;;;10.60;;
22490;SDS011;11412;50.802;4.350;2024-01-15T03:28:41;19.27;;;11.38;;
22490;SDS011;11412;50.802;4.350;2024-01-15T03:31:07;18.10;;;11.32;;
22490;SDS011;11412;50.802;4.350;2024-01-15T03:33:33;21.63;;;11.65;;
22490;SDS011;11412;50.802;4.350;2024-01-15T03:35:58;21.42;;;12.82;;
22490;SDS011;11412;50.802;4.350;2024-01-15T03:38:26;21.00;;;12.25;;
22490;SDS011;11412;50.802;4.350;2024-01-15T03:40:53;18.83;;;11.25;;
22490;SDS011;11412;50.802;4.350;2024-01-15T03:43:19;22.00;;;13.05;;
22490;SDS011;11412;50.802;4.350;2024-01-15T03:45:44;22.67;;;13.57;;
22490;SDS011;11412;50.802;4.350;2024-01-15T03:48:10;24.05;;;13.68;;
22490;SDS011;11412;50.802;4.350;2024-01-15T03:50:36;25.90;;;14.02;;
22490;SDS011;11412;50.802;4.350;2024-01-15T03:53:02;27.25;;;14.82;;
22490;SDS011;11412;50.802;4.350;2024-01-15T03:55:27;21.20;;;12.55;;
22490;SDS011;11412;50.802;4.350;2024-01-15T03:57:53;25.08;;;14.63;;
22490;SDS011;11412;50.802;4.350;2024-01-15T04:00:19;28.00;;;14.95;;
22490;SDS011;11412;50.802;4.350;2024-01-15T04:02:44;24.80;;;14.07;;
22490;SDS011;11412;50.802;4.350;2024-01-15T04:05:10;23.38;;;14.85;;
22490;SDS011;11412;50.802;4.350;2024-01-15T04:07:36;24.35;;;14.60;;
22490;SDS011;11412;50.802;4.350;2024-01-15T04:10:01;25.90;;;14.55;;
22490;SDS011;11412;50.802;4.350;2024-01-15T04:12:27;25.23;;;15.18;;
22490;SDS011;11412;50.802;4.350;2024-01-15T04:14:53;24.67;;;15.38;;
22490;SDS011;11412;50.802;4.350;2024-01-15T04:17:19;28.15;;;15.77;;
22490;SDS011;11412;50.802;4.350;2024-01-15T04:19:46;25.40;;;15.85;;
22490;SDS011;11412;50.802;4.350;2024-01-15T04:22:13;24.58;;;15.02;;
22490;SDS011;11412;50.802;4.350;2024-01-15T04:24:38;23.75;;;14.55;;
22490;SDS011;11412;50.802;4.350;2024-01-15T04:27:05;24.00;;;13.85;;
22490;SDS011;11412;50.802;4.350;2024-01-15T04:29:31;25.38;;;14.48;;
22490;SDS011;11412;50.802;4.350;2024-01-15T04:31:56;22.77;;;13.55;;
22490;SDS011;11412;50.802;4.350;2024-01-15T04:34:22;21.10;;;14.23;;
22490;SDS011;11412;50.802;4.350;2024-01-15T04:36:48;21.63;;;13.93;;
22490;SDS011;11412;50.802;4.350;2024-01-15T04:39:13;21.10;;;12.93;;
22490;SDS011;11412;50.802;4.350;2024-01-15T04:41:39;23.02;;;13.95;;
22490;SDS011;11412;50.802;4.350;2024-01-15T04:44:04;21.30;;;13.20;;
22490;SDS011;11412;50.802;4.350;2024-01-15T04:46:30;21.45;;;12.88;;
22490;SDS011;11412;50.802;4.350;2024-01-15T04:48:56;18.98;;;11.77;;
22490;SDS011;11412;50.802;4.350;2024-01-15T04:51:21;19.52;;;11.07;;
22490;SDS011;11412;50.802;4.350;2024-01-15T04:53:47;18.92;;;11.60;;
22490;SDS011;11412;50.802;4.350;2024-01-15T04:56:12;15.52;;;9.82;;
22490;SDS011;11412;50.802;4.350;2024-01-15T04:58:38;14.93;;;9.65;;
22490;SDS011;11412;50.802;4.350;2024-01-15T05:01:04;14.02;;;9.43;;
22490;SDS011;11412;50.802;4.350;2024-01-15T05:03:29;15.75;;;8.63;;
22490;SDS011;11412;50.802;4.350;2024-01-15T05:05:55;18.70;;;8.45;;
22490;SDS011;11412;50.802;4.350;2024-01-15T05:08:21;14.15;;;7.68;;
22490;SDS011;11412;50.802;4.350;2024-01-15T05:10:47;11.88;;;7.38;;
22490;SDS011;11412;50.802;4.350;2024-01-15T05:13:12;8.55;;;6.03;;
22490;SDS011;11412;50.802;4.350;2024-01-15T05:15:38;9.05;;;5.63;;
22490;SDS011;11412;50.802;4.350;2024-01-15T05:18:04;8.25;;;5.53;;
22490;SDS011;11412;50.802;4.350;2024-01-15T05:20:30;10.20;;;5.70;;
22490;SDS011;11412;50.802;4.350;2024-01-15T05:22:56;8.30;;;5.35;;
22490;SDS011;11412;50.802;4.350;2024-01-15T05:25:21;9.48;;;4.60;;
22490;SDS011;11412;50.802;4.350;2024-01-15T05:27:48;8.77;;;5.72;;
22490;SDS011;11412;50.802;4.350;2024-01-15T05:30:13;9.23;;;5.43;;
22490;SDS011;11412;50.802;4.350;2024-01-15T05:32:39;9.25;;;5.15;;
22490;SDS011;11412;50.802;4.350;2024-01-15T05:35:05;7.75;;;5.28;;
22490;SDS011;11412;50.802;4.350;2024-01-15T05:37:31;7.40;;;4.85;;
22490;SDS011;11412;50.802;4.350;2024-01-15T05:39:57;6.32;;;5.32;;
22490;SDS011;11412;50.802;4.350;2024-01-15T05:42:22;7.50;;;5.20;;
22490;SDS011;11412;50.802;4.350;2024-01-15T05:44:48;6.13;;;5.22;;
22490;SDS011;11412;50.802;4.350;2024-01-15T05:47:13;9.43;;;7.05;;
22490;SDS011;11412;50.802;4.350;2024-01-15T05:49:39;10.90;;;5.68;;
22490;SDS011;11412;50.802;4.350;2024-01-15T05:52:05;8.98;;;5.50;;
22490;SDS011;11412;50.802;4.350;2024-01-15T05:54:31;7.13;;;5.75;;
22490;SDS011;11412;50.802;4.350;2024-01-15T05:56:56;7.80;;;3.97;;
22490;SDS011;11412;50.802;4.350;2024-01-15T05:59:22;4.97;;;3.22;;
22490;SDS011;11412;50.802;4.350;2024-01-15T06:01:48;6.38;;;3.15;;
22490;SDS011;11412;50.802;4.350;2024-01-15T06:04:13;7.15;;;2.33;;
22490;SDS011;11412;50.802;4.350;2024-01-15T06:06:39;4.95;;;1.90;;
22490;SDS011;11412;50.802;4.350;2024-01-15T06:09:05;4.90;;;2.20;;
22490;SDS011;11412;50.802;4.350;2024-01-15T06:11:33;4.03;;;1.77;;
22490;SDS011;11412;50.802;4.350;2024-01-15T06:13:59;4.45;;;2.03;;
22490;SDS011;11412;50.802;4.350;2024-01-15T06:16:25;5.05;;;2.13;;
22490;SDS011;11412;50.802;4.350;2024-01-15T06:18:51;4.90;;;2.70;;
22490;SDS011;11412;50.802;4.350;2024-01-15T06:21:17;4.35;;;2.97;;
22490;SDS011;11412;50.802;4.350;2024-01-15T06:23:42;4.25;;;3.28;;
22490;SDS011;11412;50.802;4.350;2024-01-15T06:26:08;6.40;;;3.55;;
22490;SDS011;11412;50.802;4.350;2024-01-15T06:28:36;7.50;;;3.60;;
22490;SDS011;11412;50.802;4.350;2024-01-15T06:31:02;6.00;;;4.03;;
22490;SDS011;11412;50.802;4.350;2024-01-15T06:33:28;5.25;;;3.85;;
22490;SDS011;11412;50.802;4.350;2024-01-15T06:35:54;6.95;;;4.00;;
22490;SDS011;11412;50.802;4.350;2024-01-15T06:38:19;8.32;;;4.70;;
22490;SDS011;11412;50.802;4.350;2024-01-15T06:40:45;7.45;;;5.00;;
22490;SDS011;11412;50.802;4.350;2024-01-15T06:43:12;7.55;;;5.60;;
22490;SDS011;11412;50.802;4.350;2024-01-15T06:45:38;9.52;;;6.13;;
22490;SDS011;11412;50.802;4.350;2024-01-15T06:48:03;9.82;;;6.43;;
22490;SDS011;11412;50.802;4.350;2024-01-15T06:50:30;8.85;;;6.65;;
22490;SDS011;11412;50.802;4.350;2024-01-15T06:52:55;9.73;;;6.10;;
22490;SDS011;11412;50.802;4.350;2024-01-15T06:55:21;9.35;;;6.93;;
22490;SDS011;11412;50.802;4.350;2024-01-15T06:57:47;10.60;;;6.90;;
22490;SDS011;11412;50.802;4.350;2024-01-15T07:00:13;11.32;;;6.95;;
22490;SDS011;11412;50.802;4.350;2024-01-15T07:02:39;8.70;;;7.45;;
22490;SDS011;11412;50.802;4.350;2024-01-15T07:05:04;10.32;;;7.35;;
22490;SDS011;11412;50.802;4.350;2024-01-15T07:07:30;10.30;;;7.15;;
22490;SDS011;11412;50.802;4.350;2024-01-15T07:09:56;9.88;;;7.05;;
22490;SDS011;11412;50.802;4.350;2024-01-15T07:12:22;9.75;;;7.57;;
22490;SDS011;11412;50.802;4.350;2024-01-15T07:14:48;11.38;;;6.88;;
22490;SDS011;11412;50.802;4.350;2024-01-15T07:17:14;10.10;;;6.57;;
22490;SDS011;11412;50.802;4.350;2024-01-15T07:19:40;8.85;;;6.90;;
22490;SDS011;11412;50.802;4.350;2024-01-15T07:22:06;8.75;;;6.95;;
22490;SDS011;11412;50.802;4.350;2024-01-15T07:24:32;13.00;;;6.57;;
22490;SDS011;11412;50.802;4.350;2024-01-15T07:26:59;6.65;;;5.95;;
22490;SDS011;11412;50.802;4.350;2024-01-15T07:29:25;8.88;;;6.47;;
22490;SDS011;11412;50.802;4.350;2024-01-15T07:31:51;9.75;;;6.30;;
22490;SDS011;11412;50.802;4.350;2024-01-15T07:34:17;10.55;;;6.72;;
22490;SDS011;11412;50.802;4.350;2024-01-15T07:36:46;13.65;;;6.70;;
22490;SDS011;11412;50.802;4.350;2024-01-15T07:39:11;8.50;;;5.88;;
22490;SDS011;11412;50.802;4.350;2024-01-15T07:41:37;7.95;;;6.57;;
22490;SDS011;11412;50.802;4.350;2024-01-15T07:44:03;9.60;;;6.50;;
22490;SDS011;11412;50.802;4.350;2024-01-15T07:46:30;11.10;;;6.28;;
22490;SDS011;11412;50.802;4.350;2024-01-15T07:48:56;10.23;;;6.85;;
22490;SDS011;11412;50.802;4.350;2024-01-15T07:51:23;10.43;;;6.85;;
22490;SDS011;11412;50.802;4.350;2024-01-15T07:53:49;9.88;;;6.60;;
22490;SDS011;11412;50.802;4.350;2024-01-15T07:56:15;7.38;;;6.47;;
22490;SDS011;11412;50.802;4.350;2024-01-15T07:58:41;10.15;;;7.10;;
22490;SDS011;11412;50.802;4.350;2024-01-15T08:01:07;12.55;;;6.85;;
22490;SDS011;11412;50.802;4.350;2024-01-15T08:03:33;12.27;;;6.57;;
22490;SDS011;11412;50.802;4.350;2024-01-15T08:05:59;10.52;;;6.07;;
22490;SDS011;11412;50.802;4.350;2024-01-15T08:08:25;8.38;;;5.85;;
22490;SDS011;11412;50.802;4.350;2024-01-15T08:10:53;12.65;;;5.90;;
22490;SDS011;11412;50.802;4.350;2024-01-15T08:13:19;8.15;;;5.93;;
22490;SDS011;11412;50.802;4.350;2024-01-15T08:15:45;7.07;;;5.18;;
22490;SDS011;11412;50.802;4.350;2024-01-15T08:18:11;6.18;;;4.85;;
22490;SDS011;11412;50.802;4.350;2024-01-15T08:20:37;8.30;;;4.45;;
22490;SDS011;11412;50.802;4.350;2024-01-15T08:23:03;7.63;;;5.13;;
22490;SDS011;11412;50.802;4.350;2024-01-15T08:25:29;11.85;;;4.40;;
22490;SDS011;11412;50.802;4.350;2024-01-15T08:27:56;7.00;;;3.75;;
22490;SDS011;11412;50.802;4.350;2024-01-15T08:30:22;6.03;;;3.55;;
22490;SDS011;11412;50.802;4.350;2024-01-15T08:32:52;5.55;;;3.80;;
22490;SDS011;11412;50.802;4.350;2024-01-15T08:35:21;6.60;;;3.15;;
22490;SDS011;11412;50.802;4.350;2024-01-15T08:37:50;5.78;;;2.97;;
22490;SDS011;11412;50.802;4.350;2024-01-15T08:40:16;5.45;;;3.08;;
22490;SDS011;11412;50.802;4.350;2024-01-15T08:42:42;5.20;;;2.60;;
22490;SDS011;11412;50.802;4.350;2024-01-15T08:45:08;8.32;;;2.75;;
22490;SDS011;11412;50.802;4.350;2024-01-15T08:47:34;7.95;;;3.30;;
22490;SDS011;11412;50.802;4.350;2024-01-15T08:50:00;5.20;;;2.60;;
22490;SDS011;11412;50.802;4.350;2024-01-15T08:52:26;7.78;;;2.45;;
22490;SDS011;11412;50.802;4.350;2024-01-15T08:54:51;7.35;;;2.83;;
22490;SDS011;11412;50.802;4.350;2024-01-15T08:57:17;6.55;;;2.70;;
22490;SDS011;11412;50.802;4.350;2024-01-15T08:59:43;5.07;;;2.42;;
22490;SDS011;11412;50.802;4.350;2024-01-15T09:02:08;13.90;;;2.83;;
22490;SDS011;11412;50.802;4.350;2024-01-15T09:04:34;6.15;;;2.38;;
22490;SDS011;11412;50.802;4.350;2024-01-15T09:07:00;5.70;;;2.30;;
22490;SDS011;11412;50.802;4.350;2024-01-15T09:09:25;8.07;;;2.22;;
22490;SDS011;11412;50.802;4.350;2024-01-15T09:11:51;5.10;;;2.10;;
22490;SDS011;11412;50.802;4.350;2024-01-15T09:14:17;7.40;;;2.40;;
22490;SDS011;11412;50.802;4.350;2024-01-15T09:16:43;5.90;;;2.38;;
22490;SDS011;11412;50.802;4.350;2024-01-15T09:19:08;5.47;;;2.75;;
22490;SDS011;11412;50.802;4.350;2024-01-15T09:21:34;7.57;;;2.55;;
22490;SDS011;11412;50.802;4.350;2024-01-15T09:23:59;7.32;;;3.08;;
22490;SDS011;11412;50.802;4.350;2024-01-15T09:26:25;7.13;;;2.88;;
22490;SDS011;11412;50.802;4.350;2024-01-15T09:28:51;6.95;;;2.85;;
22490;SDS011;11412;50.802;4.350;2024-01-15T09:31:17;10.20;;;3.42;;
22490;SDS011;11412;50.802;4.350;2024-01-15T09:33:44;3.22;;;2.08;;
22490;SDS011;11412;50.802;4.350;2024-01-15T09:36:10;5.15;;;2.33;;
22490;SDS011;11412;50.802;4.350;2024-01-15T09:38:36;6.13;;;1.65;;
22490;SDS011;11412;50.802;4.350;2024-01-15T09:41:01;10.18;;;2.28;;
22490;SDS011;11412;50.802;4.350;2024-01-15T09:43:27;6.32;;;1.63;;
22490;SDS011;11412;50.802;4.350;2024-01-15T09:45:53;10.65;;;2.03;;
22490;SDS011;11412;50.802;4.350;2024-01-15T09:48:19;6.30;;;1.75;;
22490;SDS011;11412;50.802;4.350;2024-01-15T09:50:45;3.90;;;2.05;;
22490;SDS011;11412;50.802;4.350;2024-01-15T09:53:11;5.18;;;2.10;;
22490;SDS011;11412;50.802;4.350;2024-01-15T09:55:38;4.85;;;1.45;;
22490;SDS011;11412;50.802;4.350;2024-01-15T09:58:05;5.15;;;1.23;;
22490;SDS011;11412;50.802;4.350;2024-01-15T10:00:30;4.45;;;1.50;;
22490;SDS011;11412;50.802;4.350;2024-01-15T10:02:57;11.27;;;1.90;;
22490;SDS011;11412;50.802;4.350;2024-01-15T10:05:25;3.67;;;1.60;;
22490;SDS011;11412;50.802;4.350;2024-01-15T10:07:52;6.78;;;1.58;;
22490;SDS011;11412;50.802;4.350;2024-01-15T10:10:19;4.47;;;1.52;;
22490;SDS011;11412;50.802;4.350;2024-01-15T10:12:47;6.57;;;1.50;;
22490;SDS011;11412;50.802;4.350;2024-01-15T10:15:14;8.40;;;2.05;;
22490;SDS011;11412;50.802;4.350;2024-01-15T10:17:39;5.85;;;1.88;;
22490;SDS011;11412;50.802;4.350;2024-01-15T10:20:09;3.50;;;1.33;;
22490;SDS011;11412;50.802;4.350;2024-01-15T10:22:37;3.80;;;1.33;;
22490;SDS011;11412;50.802;4.350;2024-01-15T10:25:05;2.60;;;1.35;;
22490;SDS011;11412;50.802;4.350;2024-01-15T10:27:31;7.63;;;1.70;;
22490;SDS011;11412;50.802;4.350;2024-01-15T10:30:00;6.00;;;2.42;;
22490;SDS011;11412;50.802;4.350;2024-01-15T10:32:27;4.63;;;1.83;;
22490;SDS011;11412;50.802;4.350;2024-01-15T10:34:52;4.32;;;2.00;;
22490;SDS011;11412;50.802;4.350;2024-01-15T10:37:19;10.43;;;4.25;;
22490;SDS011;11412;50.802;4.350;2024-01-15T10:39:46;5.35;;;2.45;;
22490;SDS011;11412;50.802;4.350;2024-01-15T10:42:12;5.38;;;2.03;;
22490;SDS011;11412;50.802;4.350;2024-01-15T10:44:37;9.73;;;2.28;;
22490;SDS011;11412;50.802;4.350;2024-01-15T10:47:03;8.57;;;1.80;;
22490;SDS011;11412;50.802;4.350;2024-01-15T10:49:29;5.60;;;1.55;;
22490;SDS011;11412;50.802;4.350;2024-01-15T10:51:56;8.48;;;3.40;;
22490;SDS011;11412;50.802;4.350;2024-01-15T10:54:22;6.15;;;1.55;;
22490;SDS011;11412;50.802;4.350;2024-01-15T10:56:49;8.30;;;2.22;;
22490;SDS011;11412;50.802;4.350;2024-01-15T10:59:16;3.88;;;1.88;;
22490;SDS011;11412;50.802;4.350;2024-01-15T11:01:44;7.55;;;1.60;;
22490;SDS011;11412;50.802;4.350;2024-01-15T11:04:11;5.00;;;1.73;;
22490;SDS011;11412;50.802;4.350;2024-01-15T11:06:48;7.88;;;2.05;;
22490;SDS011;11412;50.802;4.350;2024-01-15T11:09:15;4.53;;;1.63;;
22490;SDS011;11412;50.802;4.350;2024-01-15T11:11:44;7.75;;;1.70;;
22490;SDS011;11412;50.802;4.350;2024-01-15T11:14:24;5.65;;;1.52;;
22490;SDS011;11412;50.802;4.350;2024-01-15T11:17:16;3.88;;;1.27;;
22490;SDS011;11412;50.802;4.350;2024-01-15T11:19:45;1.88;;;0.93;;
22490;SDS011;11412;50.802;4.350;2024-01-15T11:24:56;6.10;;;1.13;;
22490;SDS011;11412;50.802;4.350;2024-01-15T11:30:17;4.47;;;1.13;;
22490;SDS011;11412;50.802;4.350;2024-01-15T11:32:45;8.25;;;1.40;;
22490;SDS011;11412;50.802;4.350;2024-01-15T11:35:12;6.38;;;1.20;;
22490;SDS011;11412;50.802;4.350;2024-01-15T11:40:20;3.13;;;1.55;;
22490;SDS011;11412;50.802;4.350;2024-01-15T11:42:46;5.25;;;1.27;;
22490;SDS011;11412;50.802;4.350;2024-01-15T11:45:13;7.50;;;2.78;;
22490;SDS011;11412;50.802;4.350;2024-01-15T11:50:32;5.35;;;1.80;;
22490;SDS011;11412;50.802;4.350;2024-01-15T11:53:00;7.35;;;1.70;;
22490;SDS011;11412;50.802;4.350;2024-01-15T11:55:33;8.10;;;1.70;;
22490;SDS011;11412;50.802;4.350;2024-01-15T11:58:01;3.45;;;1.40;;
22490;SDS011;11412;50.802;4.350;2024-01-15T12:00:28;4.32;;;1.35;;
22490;SDS011;11412;50.802;4.350;2024-01-15T12:02:54;3.10;;;1.15;;
22490;SDS011;11412;50.802;4.350;2024-01-15T12:05:21;3.95;;;1.23;;
22490;SDS011;11412;50.802;4.350;2024-01-15T12:07:48;4.00;;;1.10;;
22490;SDS011;11412;50.802;4.350;2024-01-15T12:10:18;2.70;;;1.00;;
22490;SDS011;11412;50.802;4.350;2024-01-15T12:15:37;3.95;;;1.30;;
22490;SDS011;11412;50.802;4.350;2024-01-15T12:18:06;5.93;;;0.90;;
22490;SDS011;11412;50.802;4.350;2024-01-15T12:20:33;6.60;;;1.40;;
22490;SDS011;11412;50.802;4.350;2024-01-15T12:22:59;5.95;;;1.20;;
22490;SDS011;11412;50.802;4.350;2024-01-15T12:25:25;2.50;;;0.80;;
22490;SDS011;11412;50.802;4.350;2024-01-15T12:27:54;5.68;;;0.82;;
22490;SDS011;11412;50.802;4.350;2024-01-15T12:30:20;4.70;;;1.15;;
22490;SDS011;11412;50.802;4.350;2024-01-15T12:32:46;11.75;;;1.73;;
22490;SDS011;11412;50.802;4.350;2024-01-15T12:35:12;3.40;;;0.98;;
22490;SDS011;11412;50.802;4.350;2024-01-15T12:37:39;6.15;;;1.05;;
22490;SDS011;11412;50.802;4.350;2024-01-15T12:40:06;6.68;;;1.38;;
22490;SDS011;11412;50.802;4.350;2024-01-15T12:42:33;4.10;;;1.10;;
22490;SDS011;11412;50.802;4.350;2024-01-15T12:45:01;3.03;;;1.40;;
22490;SDS011;11412;50.802;4.350;2024-01-15T12:47:29;4.13;;;1.17;;
22490;SDS011;11412;50.802;4.350;2024-01-15T12:49:55;4.90;;;1.30;;
22490;SDS011;11412;50.802;4.350;2024-01-15T12:52:22;3.17;;;1.20;;
22490;SDS011;11412;50.802;4.350;2024-01-15T12:54:48;3.75;;;1.13;;
22490;SDS011;11412;50.802;4.350;2024-01-15T12:57:15;4.18;;;0.88;;
22490;SDS011;11412;50.802;4.350;2024-01-15T12:59:42;4.95;;;1.20;;
22490;SDS011;11412;50.802;4.350;2024-01-15T13:02:09;7.03;;;1.10;;
22490;SDS011;11412;50.802;4.350;2024-01-15T13:04:35;12.35;;;1.40;;
22490;SDS011;11412;50.802;4.350;2024-01-15T13:07:01;2.38;;;1.25;;
22490;SDS011;11412;50.802;4.350;2024-01-15T13:09:27;6.93;;;1.48;;
22490;SDS011;11412;50.802;4.350;2024-01-15T13:11:54;2.83;;;1.27;;
22490;SDS011;11412;50.802;4.350;2024-01-15T13:14:20;3.45;;;0.95;;
22490;SDS011;11412;50.802;4.350;2024-01-15T13:16:46;6.25;;;1.27;;
22490;SDS011;11412;50.802;4.350;2024-01-15T13:19:12;10.90;;;1.42;;
22490;SDS011;11412;50.802;4.350;2024-01-15T13:21:38;1.88;;;1.20;;
22490;SDS011;11412;50.802;4.350;2024-01-15T13:24:07;8.38;;;1.85;;
22490;SDS011;11412;50.802;4.350;2024-01-15T13:26:33;4.30;;;1.30;;
22490;SDS011;11412;50.802;4.350;2024-01-15T13:29:00;3.75;;;1.33;;
22490;SDS011;11412;50.802;4.350;2024-01-15T13:31:26;3.80;;;1.50;;
22490;SDS011;11412;50.802;4.350;2024-01-15T13:33:53;3.17;;;1.05;;
22490;SDS011;11412;50.802;4.350;2024-01-15T13:36:18;5.78;;;1.30;;
22490;SDS011;11412;50.802;4.350;2024-01-15T13:38:46;2.15;;;1.00;;
22490;SDS011;11412;50.802;4.350;2024-01-15T13:41:12;5.75;;;1.48;;
22490;SDS011;11412;50.802;4.350;2024-01-15T13:43:37;6.78;;;1.40;;
22490;SDS011;11412;50.802;4.350;2024-01-15T13:46:03;5.63;;;1.25;;
22490;SDS011;11412;50.802;4.350;2024-01-15T13:48:30;4.90;;;1.50;;
22490;SDS011;11412;50.802;4.350;2024-01-15T13:50:56;9.38;;;1.40;;
22490;SDS011;11412;50.802;4.350;2024-01-15T13:53:23;6.55;;;1.40;;
22490;SDS011;11412;50.802;4.350;2024-01-15T13:55:48;9.50;;;2.38;;
22490;SDS011;11412;50.802;4.350;2024-01-15T13:58:14;6.90;;;1.30;;
22490;SDS011;11412;50.802;4.350;2024-01-15T14:00:39;10.50;;;1.70;;
22490;SDS011;11412;50.802;4.350;2024-01-15T14:03:06;6.13;;;1.52;;
22490;SDS011;11412;50.802;4.350;2024-01-15T14:05:31;4.93;;;1.85;;
22490;SDS011;11412;50.802;4.350;2024-01-15T14:07:57;7.20;;;1.92;;
22490;SDS011;11412;50.802;4.350;2024-01-15T14:10:23;7.68;;;1.88;;
22490;SDS011;11412;50.802;4.350;2024-01-15T14:12:49;7.47;;;2.08;;
22490;SDS011;11412;50.802;4.350;2024-01-15T14:15:15;5.13;;;1.60;;
22490;SDS011;11412;50.802;4.350;2024-01-15T14:17:40;7.13;;;2.10;;
22490;SDS011;11412;50.802;4.350;2024-01-15T14:20:06;6.20;;;2.58;;
22490;SDS011;11412;50.802;4.350;2024-01-15T14:22:34;12.85;;;3.60;;
22490;SDS011;11412;50.802;4.350;2024-01-15T14:24:59;11.40;;;2.53;;
22490;SDS011;11412;50.802;4.350;2024-01-15T14:27:25;8.50;;;1.73;;
22490;SDS011;11412;50.802;4.350;2024-01-15T14:29:51;9.30;;;2.92;;
22490;SDS011;11412;50.802;4.350;2024-01-15T14:32:17;9.02;;;2.47;;
22490;SDS011;11412;50.802;4.350;2024-01-15T14:34:42;10.60;;;3.38;;
22490;SDS011;11412;50.802;4.350;2024-01-15T14:37:08;7.20;;;2.40;;
22490;SDS011;11412;50.802;4.350;2024-01-15T14:39:34;8.27;;;2.20;;
22490;SDS011;11412;50.802;4.350;2024-01-15T14:42:00;8.32;;;3.17;;
22490;SDS011;11412;50.802;4.350;2024-01-15T14:44:25;10.77;;;2.60;;
22490;SDS011;11412;50.802;4.350;2024-01-15T14:46:53;6.57;;;1.40;;
22490;SDS011;11412;50.802;4.350;2024-01-15T14:49:19;6.28;;;2.35;;
22490;SDS011;11412;50.802;4.350;2024-01-15T14:51:45;8.27;;;2.70;;